sensor_id;sensor_type;location;lat;lon;timestamp;temperature;humidity
11454;DHT22;5783;55.174;61.310;2023-07-30T00:00:52;26.80;54.50
11454;DHT22;5783;55.174;61.310;2023-07-30T00:03:20;26.80;54.60
11454;DHT22;5783;55.174;61.310;2023-07-30T00:06:09;26.80;54.40
11454;DHT22;5783;55.174;61.310;2023-07-30T00:08:38;26.80;54.30
11454;DHT22;5783;55.174;61.310;2023-07-30T00:11:07;26.80;54.30
11454;DHT22;5783;55.174;61.310;2023-07-30T00:13:36;26.80;54.30
11454;DHT22;5783;55.174;61.310;2023-07-30T00:16:05;26.80;54.50
11454;DHT22;5783;55.174;61.310;2023-07-30T00:18:33;26.80;54.50
11454;DHT22;5783;55.174;61.310;2023-07-30T00:21:01;26.80;54.50
11454;DHT22;5783;55.174;61.310;2023-07-30T00:23:30;26.80;54.50
11454;DHT22;5783;55.174;61.310;2023-07-30T00:25:58;26.80;54.60
11454;DHT22;5783;55.174;61.310;2023-07-30T00:28:27;26.80;54.70
11454;DHT22;5783;55.174;61.310;2023-07-30T00:30:56;26.80;54.70
11454;DHT22;5783;55.174;61.310;2023-07-30T00:33:24;26.80;54.80
11454;DHT22;5783;55.174;61.310;2023-07-30T00:35:54;26.80;54.90
11454;DHT22;5783;55.174;61.310;2023-07-30T00:38:22;26.80;55.00
11454;DHT22;5783;55.174;61.310;2023-07-30T00:40:50;26.80;55.00
11454;DHT22;5783;55.174;61.310;2023-07-30T00:43:18;26.90;55.00
11454;DHT22;5783;55.174;61.310;2023-07-30T00:45:47;26.80;55.00
11454;DHT22;5783;55.174;61.310;2023-07-30T00:48:15;26.80;55.00
11454;DHT22;5783;55.174;61.310;2023-07-30T00:50:43;26.80;54.50
11454;DHT22;5783;55.174;61.310;2023-07-30T00:53:14;26.80;55.20
11454;DHT22;5783;55.174;61.310;2023-07-30T00:55:43;26.90;55.40
11454;DHT22;5783;55.174;61.310;2023-07-30T00:58:13;26.80;55.30
11454;DHT22;5783;55.174;61.310;2023-07-30T01:00:42;26.80;55.40
11454;DHT22;5783;55.174;61.310;2023-07-30T01:03:11;26.80;55.50
11454;DHT22;5783;55.174;61.310;2023-07-30T01:05:40;26.90;55.60
11454;DHT22;5783;55.174;61.310;2023-07-30T01:08:08;26.90;55.80
11454;DHT22;5783;55.174;61.310;2023-07-30T01:10:36;26.90;55.80
11454;DHT22;5783;55.174;61.310;2023-07-30T01:13:07;26.90;55.80
11454;DHT22;5783;55.174;61.310;2023-07-30T01:15:38;26.90;55.70
11454;DHT22;5783;55.174;61.310;2023-07-30T01:18:07;26.90;55.80
11454;DHT22;5783;55.174;61.310;2023-07-30T01:20:35;26.90;55.80
11454;DHT22;5783;55.174;61.310;2023-07-30T01:23:04;26.90;55.90
11454;DHT22;5783;55.174;61.310;2023-07-30T01:25:33;26.90;55.70
11454;DHT22;5783;55.174;61.310;2023-07-30T01:28:05;26.90;55.80
11454;DHT22;5783;55.174;61.310;2023-07-30T01:33:25;26.90;55.70
11454;DHT22;5783;55.174;61.310;2023-07-30T01:35:54;26.90;55.80
11454;DHT22;5783;55.174;61.310;2023-07-30T01:38:23;26.80;55.90
11454;DHT22;5783;55.174;61.310;2023-07-30T01:40:51;26.90;56.00
11454;DHT22;5783;55.174;61.310;2023-07-30T01:43:19;26.80;56.00
11454;DHT22;5783;55.174;61.310;2023-07-30T01:45:47;26.80;56.10
11454;DHT22;5783;55.174;61.310;2023-07-30T01:48:16;26.90;56.30
11454;DHT22;5783;55.174;61.310;2023-07-30T01:50:44;26.80;56.40
11454;DHT22;5783;55.174;61.310;2023-07-30T01:53:13;26.80;56.20
11454;DHT22;5783;55.174;61.310;2023-07-30T01:55:42;26.80;56.10
11454;DHT22;5783;55.174;61.310;2023-07-30T01:58:13;26.80;55.80
11454;DHT22;5783;55.174;61.310;2023-07-30T02:00:42;26.80;56.00
11454;DHT22;5783;55.174;61.310;2023-07-30T02:03:11;26.80;56.00
11454;DHT22;5783;55.174;61.310;2023-07-30T02:05:40;26.80;55.50
11454;DHT22;5783;55.174;61.310;2023-07-30T02:08:08;26.70;55.40
11454;DHT22;5783;55.174;61.310;2023-07-30T02:10:38;26.70;55.40
11454;DHT22;5783;55.174;61.310;2023-07-30T02:13:06;26.70;55.40
11454;DHT22;5783;55.174;61.310;2023-07-30T02:15:39;26.80;55.70
11454;DHT22;5783;55.174;61.310;2023-07-30T02:18:08;26.70;55.30
11454;DHT22;5783;55.174;61.310;2023-07-30T02:20:37;26.70;55.30
11454;DHT22;5783;55.174;61.310;2023-07-30T02:23:06;26.70;55.40
11454;DHT22;5783;55.174;61.310;2023-07-30T02:25:35;26.70;55.30
11454;DHT22;5783;55.174;61.310;2023-07-30T02:28:23;26.70;55.30
11454;DHT22;5783;55.174;61.310;2023-07-30T02:30:52;26.70;55.30
11454;DHT22;5783;55.174;61.310;2023-07-30T02:33:20;26.80;55.40
11454;DHT22;5783;55.174;61.310;2023-07-30T02:35:49;26.70;55.30
11454;DHT22;5783;55.174;61.310;2023-07-30T02:38:17;26.70;55.30
11454;DHT22;5783;55.174;61.310;2023-07-30T02:40:45;26.70;55.20
11454;DHT22;5783;55.174;61.310;2023-07-30T02:43:14;26.70;55.20
11454;DHT22;5783;55.174;61.310;2023-07-30T02:45:42;26.80;55.30
11454;DHT22;5783;55.174;61.310;2023-07-30T02:48:12;26.80;55.20
11454;DHT22;5783;55.174;61.310;2023-07-30T02:50:41;26.80;55.30
11454;DHT22;5783;55.174;61.310;2023-07-30T02:53:09;26.80;55.40
11454;DHT22;5783;55.174;61.310;2023-07-30T02:55:38;26.80;55.40
11454;DHT22;5783;55.174;61.310;2023-07-30T02:58:07;26.80;55.50
11454;DHT22;5783;55.174;61.310;2023-07-30T03:00:36;26.80;55.50
11454;DHT22;5783;55.174;61.310;2023-07-30T03:03:04;26.80;55.50
11454;DHT22;5783;55.174;61.310;2023-07-30T03:05:32;26.80;55.50
11454;DHT22;5783;55.174;61.310;2023-07-30T03:08:01;26.80;55.50
11454;DHT22;5783;55.174;61.310;2023-07-30T03:10:30;26.80;55.50
11454;DHT22;5783;55.174;61.310;2023-07-30T03:12:58;26.80;55.60
11454;DHT22;5783;55.174;61.310;2023-07-30T03:15:27;26.80;55.50
11454;DHT22;5783;55.174;61.310;2023-07-30T03:17:56;26.80;55.60
11454;DHT22;5783;55.174;61.310;2023-07-30T03:20:26;26.80;55.50
11454;DHT22;5783;55.174;61.310;2023-07-30T03:22:55;26.90;55.50
11454;DHT22;5783;55.174;61.310;2023-07-30T03:25:24;26.90;55.30
11454;DHT22;5783;55.174;61.310;2023-07-30T03:27:53;26.90;55.10
11454;DHT22;5783;55.174;61.310;2023-07-30T03:30:22;26.90;55.00
11454;DHT22;5783;55.174;61.310;2023-07-30T03:32:50;26.90;54.90
11454;DHT22;5783;55.174;61.310;2023-07-30T03:35:19;26.90;54.80
11454;DHT22;5783;55.174;61.310;2023-07-30T03:37:48;26.90;54.80
11454;DHT22;5783;55.174;61.310;2023-07-30T03:40:16;26.90;54.70
11454;DHT22;5783;55.174;61.310;2023-07-30T03:42:45;26.90;54.60
11454;DHT22;5783;55.174;61.310;2023-07-30T03:45:14;26.80;54.60
11454;DHT22;5783;55.174;61.310;2023-07-30T03:47:43;26.90;54.60
11454;DHT22;5783;55.174;61.310;2023-07-30T03:50:11;26.80;54.50
11454;DHT22;5783;55.174;61.310;2023-07-30T03:52:40;26.80;54.40
11454;DHT22;5783;55.174;61.310;2023-07-30T03:55:09;26.80;54.50
11454;DHT22;5783;55.174;61.310;2023-07-30T03:57:37;26.80;54.40
11454;DHT22;5783;55.174;61.310;2023-07-30T04:00:06;26.80;54.50
11454;DHT22;5783;55.174;61.310;2023-07-30T04:02:36;26.90;54.60
11454;DHT22;5783;55.174;61.310;2023-07-30T04:05:04;26.80;54.60
11454;DHT22;5783;55.174;61.310;2023-07-30T04:07:32;26.80;54.60
11454;DHT22;5783;55.174;61.310;2023-07-30T04:10:01;26.80;54.60
11454;DHT22;5783;55.174;61.310;2023-07-30T04:12:31;26.80;54.10
11454;DHT22;5783;55.174;61.310;2023-07-30T04:15:00;26.80;54.50
11454;DHT22;5783;55.174;61.310;2023-07-30T04:17:31;26.80;54.40
11454;DHT22;5783;55.174;61.310;2023-07-30T04:19:59;26.80;54.60
11454;DHT22;5783;55.174;61.310;2023-07-30T04:22:29;26.70;54.60
11454;DHT22;5783;55.174;61.310;2023-07-30T04:24:58;26.70;54.70
11454;DHT22;5783;55.174;61.310;2023-07-30T04:27:27;26.70;54.60
11454;DHT22;5783;55.174;61.310;2023-07-30T04:29:56;26.70;54.50
11454;DHT22;5783;55.174;61.310;2023-07-30T04:32:25;26.70;54.30
11454;DHT22;5783;55.174;61.310;2023-07-30T04:34:55;26.70;53.80
11454;DHT22;5783;55.174;61.310;2023-07-30T04:37:25;26.60;53.90
11454;DHT22;5783;55.174;61.310;2023-07-30T04:39:56;26.70;53.90
11454;DHT22;5783;55.174;61.310;2023-07-30T04:42:25;26.70;53.90
11454;DHT22;5783;55.174;61.310;2023-07-30T04:44:54;26.60;53.80
11454;DHT22;5783;55.174;61.310;2023-07-30T04:47:23;26.60;53.70
11454;DHT22;5783;55.174;61.310;2023-07-30T04:49:52;26.60;53.70
11454;DHT22;5783;55.174;61.310;2023-07-30T04:52:21;26.60;53.70
11454;DHT22;5783;55.174;61.310;2023-07-30T04:54:50;26.60;53.70
11454;DHT22;5783;55.174;61.310;2023-07-30T04:57:19;26.70;53.80
11454;DHT22;5783;55.174;61.310;2023-07-30T04:59:48;26.60;53.50
11454;DHT22;5783;55.174;61.310;2023-07-30T05:02:18;26.70;53.50
11454;DHT22;5783;55.174;61.310;2023-07-30T05:04:47;26.70;53.10
11454;DHT22;5783;55.174;61.310;2023-07-30T05:07:16;26.70;53.10
11454;DHT22;5783;55.174;61.310;2023-07-30T05:09:45;26.70;53.20
11454;DHT22;5783;55.174;61.310;2023-07-30T05:12:14;26.70;53.20
11454;DHT22;5783;55.174;61.310;2023-07-30T05:14:43;26.70;52.70
11454;DHT22;5783;55.174;61.310;2023-07-30T05:17:11;26.70;51.40
11454;DHT22;5783;55.174;61.310;2023-07-30T05:19:41;26.70;52.00
11454;DHT22;5783;55.174;61.310;2023-07-30T05:22:10;26.80;52.40
11454;DHT22;5783;55.174;61.310;2023-07-30T05:24:39;26.80;52.40
11454;DHT22;5783;55.174;61.310;2023-07-30T05:27:08;26.80;52.40
11454;DHT22;5783;55.174;61.310;2023-07-30T05:29:37;26.80;52.30
11454;DHT22;5783;55.174;61.310;2023-07-30T05:32:06;26.80;52.20
11454;DHT22;5783;55.174;61.310;2023-07-30T05:34:36;26.80;52.10
11454;DHT22;5783;55.174;61.310;2023-07-30T05:37:05;26.80;52.20
11454;DHT22;5783;55.174;61.310;2023-07-30T05:39:34;26.80;52.20
11454;DHT22;5783;55.174;61.310;2023-07-30T05:42:03;26.80;52.40
11454;DHT22;5783;55.174;61.310;2023-07-30T05:44:32;26.80;52.20
11454;DHT22;5783;55.174;61.310;2023-07-30T05:47:01;26.80;52.10
11454;DHT22;5783;55.174;61.310;2023-07-30T05:49:30;26.90;52.40
11454;DHT22;5783;55.174;61.310;2023-07-30T05:51:59;26.90;52.50
11454;DHT22;5783;55.174;61.310;2023-07-30T05:54:27;26.90;52.60
11454;DHT22;5783;55.174;61.310;2023-07-30T05:56:55;26.90;52.60
11454;DHT22;5783;55.174;61.310;2023-07-30T05:59:23;26.90;52.30
11454;DHT22;5783;55.174;61.310;2023-07-30T06:01:51;26.90;52.00
11454;DHT22;5783;55.174;61.310;2023-07-30T06:04:20;26.90;52.00
11454;DHT22;5783;55.174;61.310;2023-07-30T06:06:49;26.90;50.50
11454;DHT22;5783;55.174;61.310;2023-07-30T06:09:18;26.90;49.40
11454;DHT22;5783;55.174;61.310;2023-07-30T06:11:48;26.90;50.00
11454;DHT22;5783;55.174;61.310;2023-07-30T06:14:16;26.90;50.70
11454;DHT22;5783;55.174;61.310;2023-07-30T06:16:44;26.90;50.60
11454;DHT22;5783;55.174;61.310;2023-07-30T06:19:12;26.90;50.30
11454;DHT22;5783;55.174;61.310;2023-07-30T06:21:41;26.90;50.10
11454;DHT22;5783;55.174;61.310;2023-07-30T06:24:10;26.90;50.70
11454;DHT22;5783;55.174;61.310;2023-07-30T06:26:39;27.00;50.70
11454;DHT22;5783;55.174;61.310;2023-07-30T06:29:08;26.90;49.90
11454;DHT22;5783;55.174;61.310;2023-07-30T06:31:36;26.90;49.30
11454;DHT22;5783;55.174;61.310;2023-07-30T06:34:05;26.90;49.70
11454;DHT22;5783;55.174;61.310;2023-07-30T06:36:33;26.90;50.70
11454;DHT22;5783;55.174;61.310;2023-07-30T06:39:03;26.90;51.20
11454;DHT22;5783;55.174;61.310;2023-07-30T06:41:31;27.00;51.40
11454;DHT22;5783;55.174;61.310;2023-07-30T06:44:00;27.00;51.40
11454;DHT22;5783;55.174;61.310;2023-07-30T06:46:28;27.00;51.30
11454;DHT22;5783;55.174;61.310;2023-07-30T06:48:56;27.00;51.40
11454;DHT22;5783;55.174;61.310;2023-07-30T06:51:26;27.00;51.30
11454;DHT22;5783;55.174;61.310;2023-07-30T06:53:56;27.10;51.30
11454;DHT22;5783;55.174;61.310;2023-07-30T06:56:25;27.10;51.30
11454;DHT22;5783;55.174;61.310;2023-07-30T06:58:54;27.10;51.30
11454;DHT22;5783;55.174;61.310;2023-07-30T07:04:10;27.10;51.20
11454;DHT22;5783;55.174;61.310;2023-07-30T07:06:58;27.10;51.20
11454;DHT22;5783;55.174;61.310;2023-07-30T07:09:27;27.10;51.30
11454;DHT22;5783;55.174;61.310;2023-07-30T07:11:55;27.10;51.30
11454;DHT22;5783;55.174;61.310;2023-07-30T07:14:24;27.10;51.20
11454;DHT22;5783;55.174;61.310;2023-07-30T07:16:52;27.10;51.20
11454;DHT22;5783;55.174;61.310;2023-07-30T07:19:21;27.20;51.30
11454;DHT22;5783;55.174;61.310;2023-07-30T07:21:50;27.20;51.20
11454;DHT22;5783;55.174;61.310;2023-07-30T07:24:18;27.20;51.10
11454;DHT22;5783;55.174;61.310;2023-07-30T07:26:46;27.20;51.10
11454;DHT22;5783;55.174;61.310;2023-07-30T07:29:14;27.20;51.10
11454;DHT22;5783;55.174;61.310;2023-07-30T07:31:42;27.20;51.10
11454;DHT22;5783;55.174;61.310;2023-07-30T07:34:10;27.30;51.00
11454;DHT22;5783;55.174;61.310;2023-07-30T07:36:38;27.20;51.00
11454;DHT22;5783;55.174;61.310;2023-07-30T07:39:06;27.30;51.00
11454;DHT22;5783;55.174;61.310;2023-07-30T07:41:35;27.30;51.00
11454;DHT22;5783;55.174;61.310;2023-07-30T07:44:03;27.30;51.00
11454;DHT22;5783;55.174;61.310;2023-07-30T07:46:31;27.30;50.90
11454;DHT22;5783;55.174;61.310;2023-07-30T07:48:59;27.30;51.00
11454;DHT22;5783;55.174;61.310;2023-07-30T07:51:27;27.30;51.10
11454;DHT22;5783;55.174;61.310;2023-07-30T07:53:56;27.30;50.90
11454;DHT22;5783;55.174;61.310;2023-07-30T07:56:24;27.30;50.90
11454;DHT22;5783;55.174;61.310;2023-07-30T07:58:52;27.30;50.90
11454;DHT22;5783;55.174;61.310;2023-07-30T08:01:20;27.40;50.90
11454;DHT22;5783;55.174;61.310;2023-07-30T08:03:48;27.30;50.80
11454;DHT22;5783;55.174;61.310;2023-07-30T08:06:16;27.30;50.80
11454;DHT22;5783;55.174;61.310;2023-07-30T08:08:44;27.30;50.80
11454;DHT22;5783;55.174;61.310;2023-07-30T08:11:12;27.30;48.90
11454;DHT22;5783;55.174;61.310;2023-07-30T08:13:41;27.30;47.00
11454;DHT22;5783;55.174;61.310;2023-07-30T08:16:09;27.20;46.40
11454;DHT22;5783;55.174;61.310;2023-07-30T08:18:37;27.20;46.70
11454;DHT22;5783;55.174;61.310;2023-07-30T08:21:05;27.20;46.60
11454;DHT22;5783;55.174;61.310;2023-07-30T08:23:33;27.20;46.40
11454;DHT22;5783;55.174;61.310;2023-07-30T08:26:01;27.10;46.20
11454;DHT22;5783;55.174;61.310;2023-07-30T08:28:30;27.10;46.50
11454;DHT22;5783;55.174;61.310;2023-07-30T08:34:05;27.10;46.40
11454;DHT22;5783;55.174;61.310;2023-07-30T08:36:33;27.10;47.50
11454;DHT22;5783;55.174;61.310;2023-07-30T08:39:01;27.10;48.60
11454;DHT22;5783;55.174;61.310;2023-07-30T08:41:30;27.10;48.70
11454;DHT22;5783;55.174;61.310;2023-07-30T08:43:58;27.10;48.80
11454;DHT22;5783;55.174;61.310;2023-07-30T08:46:26;27.20;49.00
11454;DHT22;5783;55.174;61.310;2023-07-30T08:48:55;27.10;48.90
11454;DHT22;5783;55.174;61.310;2023-07-30T08:51:23;27.20;49.00
11454;DHT22;5783;55.174;61.310;2023-07-30T08:53:51;27.20;49.00
11454;DHT22;5783;55.174;61.310;2023-07-30T08:56:20;27.20;49.00
11454;DHT22;5783;55.174;61.310;2023-07-30T08:58:48;27.20;49.20
11454;DHT22;5783;55.174;61.310;2023-07-30T09:01:20;27.20;49.00
11454;DHT22;5783;55.174;61.310;2023-07-30T09:03:49;27.20;49.10
11454;DHT22;5783;55.174;61.310;2023-07-30T09:06:18;27.20;49.10
11454;DHT22;5783;55.174;61.310;2023-07-30T09:08:46;27.20;49.40
11454;DHT22;5783;55.174;61.310;2023-07-30T09:11:16;27.20;49.10
11454;DHT22;5783;55.174;61.310;2023-07-30T09:13:46;27.20;46.50
11454;DHT22;5783;55.174;61.310;2023-07-30T09:16:14;27.20;46.10
11454;DHT22;5783;55.174;61.310;2023-07-30T09:18:45;27.10;45.70
11454;DHT22;5783;55.174;61.310;2023-07-30T09:21:15;27.10;45.60
11454;DHT22;5783;55.174;61.310;2023-07-30T09:23:44;27.10;46.20
11454;DHT22;5783;55.174;61.310;2023-07-30T09:26:13;27.10;46.80
11454;DHT22;5783;55.174;61.310;2023-07-30T09:28:41;27.10;47.40
11454;DHT22;5783;55.174;61.310;2023-07-30T09:31:09;27.10;47.00
11454;DHT22;5783;55.174;61.310;2023-07-30T09:33:40;27.10;47.20
11454;DHT22;5783;55.174;61.310;2023-07-30T09:36:08;27.10;47.40
11454;DHT22;5783;55.174;61.310;2023-07-30T09:41:24;27.10;47.50
11454;DHT22;5783;55.174;61.310;2023-07-30T09:43:58;27.10;47.60
11454;DHT22;5783;55.174;61.310;2023-07-30T09:46:23;27.10;48.10
11454;DHT22;5783;55.174;61.310;2023-07-30T09:48:52;27.10;48.30
11454;DHT22;5783;55.174;61.310;2023-07-30T09:51:20;27.10;48.30
11454;DHT22;5783;55.174;61.310;2023-07-30T09:53:49;27.10;47.90
11454;DHT22;5783;55.174;61.310;2023-07-30T09:56:17;27.20;48.20
11454;DHT22;5783;55.174;61.310;2023-07-30T09:58:46;27.20;47.40
11454;DHT22;5783;55.174;61.310;2023-07-30T10:01:14;27.20;47.40
11454;DHT22;5783;55.174;61.310;2023-07-30T10:03:43;27.20;46.20
11454;DHT22;5783;55.174;61.310;2023-07-30T10:06:11;27.20;45.70
11454;DHT22;5783;55.174;61.310;2023-07-30T10:08:39;27.20;45.40
11454;DHT22;5783;55.174;61.310;2023-07-30T10:11:09;27.10;45.20
11454;DHT22;5783;55.174;61.310;2023-07-30T10:13:38;27.20;45.10
11454;DHT22;5783;55.174;61.310;2023-07-30T10:18:56;27.10;45.30
11454;DHT22;5783;55.174;61.310;2023-07-30T10:21:25;27.10;45.10
11454;DHT22;5783;55.174;61.310;2023-07-30T10:26:43;27.10;45.20
11454;DHT22;5783;55.174;61.310;2023-07-30T10:31:59;27.10;45.90
11454;DHT22;5783;55.174;61.310;2023-07-30T10:34:27;27.10;46.40
11454;DHT22;5783;55.174;61.310;2023-07-30T10:36:57;27.10;46.40
11454;DHT22;5783;55.174;61.310;2023-07-30T10:39:28;27.10;46.80
11454;DHT22;5783;55.174;61.310;2023-07-30T10:41:57;27.10;47.10
11454;DHT22;5783;55.174;61.310;2023-07-30T10:47:13;27.10;47.30
11454;DHT22;5783;55.174;61.310;2023-07-30T10:49:41;27.10;46.70
11454;DHT22;5783;55.174;61.310;2023-07-30T10:52:29;27.10;46.50
11454;DHT22;5783;55.174;61.310;2023-07-30T10:57:45;27.10;45.80
11454;DHT22;5783;55.174;61.310;2023-07-30T11:00:13;27.10;46.10
11454;DHT22;5783;55.174;61.310;2023-07-30T11:02:42;27.10;46.40
11454;DHT22;5783;55.174;61.310;2023-07-30T11:07:57;27.10;45.30
11454;DHT22;5783;55.174;61.310;2023-07-30T11:10:26;27.10;45.40
11454;DHT22;5783;55.174;61.310;2023-07-30T11:12:54;27.10;45.00
11454;DHT22;5783;55.174;61.310;2023-07-30T11:15:22;27.10;44.70
11454;DHT22;5783;55.174;61.310;2023-07-30T11:20:38;27.10;44.50
11454;DHT22;5783;55.174;61.310;2023-07-30T11:25:54;27.10;45.30
11454;DHT22;5783;55.174;61.310;2023-07-30T11:31:11;27.10;45.80
11454;DHT22;5783;55.174;61.310;2023-07-30T11:36:27;27.10;45.80
11454;DHT22;5783;55.174;61.310;2023-07-30T11:38:55;27.10;45.30
11454;DHT22;5783;55.174;61.310;2023-07-30T11:41:24;27.00;45.10
11454;DHT22;5783;55.174;61.310;2023-07-30T11:43:53;27.00;45.20
11454;DHT22;5783;55.174;61.310;2023-07-30T11:46:22;27.00;45.00
11454;DHT22;5783;55.174;61.310;2023-07-30T11:48:51;27.00;44.80
11454;DHT22;5783;55.174;61.310;2023-07-30T11:54:17;27.00;44.60
11454;DHT22;5783;55.174;61.310;2023-07-30T11:56:37;26.90;44.50
11454;DHT22;5783;55.174;61.310;2023-07-30T11:59:06;27.00;44.60
11454;DHT22;5783;55.174;61.310;2023-07-30T12:01:36;26.90;44.60
11454;DHT22;5783;55.174;61.310;2023-07-30T12:04:05;26.90;44.80
11454;DHT22;5783;55.174;61.310;2023-07-30T12:06:54;26.90;45.10
11454;DHT22;5783;55.174;61.310;2023-07-30T12:09:24;26.90;45.10
11454;DHT22;5783;55.174;61.310;2023-07-30T12:11:54;26.90;45.20
11454;DHT22;5783;55.174;61.310;2023-07-30T12:14:24;26.90;45.80
11454;DHT22;5783;55.174;61.310;2023-07-30T12:16:54;26.90;46.30
11454;DHT22;5783;55.174;61.310;2023-07-30T12:19:22;26.90;46.20
11454;DHT22;5783;55.174;61.310;2023-07-30T12:21:51;27.00;46.90
11454;DHT22;5783;55.174;61.310;2023-07-30T12:24:20;27.00;46.70
11454;DHT22;5783;55.174;61.310;2023-07-30T12:26:48;27.00;46.40
11454;DHT22;5783;55.174;61.310;2023-07-30T12:29:16;27.00;46.60
11454;DHT22;5783;55.174;61.310;2023-07-30T12:31:45;27.00;46.20
11454;DHT22;5783;55.174;61.310;2023-07-30T12:34:15;27.00;46.20
11454;DHT22;5783;55.174;61.310;2023-07-30T12:36:43;27.00;46.10
11454;DHT22;5783;55.174;61.310;2023-07-30T12:39:12;27.00;45.60
11454;DHT22;5783;55.174;61.310;2023-07-30T12:41:41;27.00;45.50
11454;DHT22;5783;55.174;61.310;2023-07-30T12:44:09;27.00;45.40
11454;DHT22;5783;55.174;61.310;2023-07-30T12:46:37;27.00;45.30
11454;DHT22;5783;55.174;61.310;2023-07-30T12:49:05;27.00;45.30
11454;DHT22;5783;55.174;61.310;2023-07-30T12:51:33;27.00;44.90
11454;DHT22;5783;55.174;61.310;2023-07-30T12:54:02;27.00;44.80
11454;DHT22;5783;55.174;61.310;2023-07-30T12:56:30;27.00;44.50
11454;DHT22;5783;55.174;61.310;2023-07-30T12:58:59;27.00;44.60
11454;DHT22;5783;55.174;61.310;2023-07-30T13:01:27;27.00;45.00
11454;DHT22;5783;55.174;61.310;2023-07-30T13:03:56;27.00;45.10
11454;DHT22;5783;55.174;61.310;2023-07-30T13:06:25;27.00;45.10
11454;DHT22;5783;55.174;61.310;2023-07-30T13:08:54;27.00;45.60
11454;DHT22;5783;55.174;61.310;2023-07-30T13:11:24;27.00;45.90
11454;DHT22;5783;55.174;61.310;2023-07-30T13:13:52;27.00;46.00
11454;DHT22;5783;55.174;61.310;2023-07-30T13:16:21;27.00;46.10
11454;DHT22;5783;55.174;61.310;2023-07-30T13:18:50;27.00;46.10
11454;DHT22;5783;55.174;61.310;2023-07-30T13:21:21;27.00;45.80
11454;DHT22;5783;55.174;61.310;2023-07-30T13:23:50;27.00;45.80
11454;DHT22;5783;55.174;61.310;2023-07-30T13:26:19;27.00;45.40
11454;DHT22;5783;55.174;61.310;2023-07-30T13:28:48;27.00;45.30
11454;DHT22;5783;55.174;61.310;2023-07-30T13:31:16;26.90;46.60
11454;DHT22;5783;55.174;61.310;2023-07-30T13:33:44;27.00;47.70
11454;DHT22;5783;55.174;61.310;2023-07-30T13:36:14;26.90;47.90
11454;DHT22;5783;55.174;61.310;2023-07-30T13:38:43;27.00;47.80
11454;DHT22;5783;55.174;61.310;2023-07-30T13:41:11;27.00;47.10
11454;DHT22;5783;55.174;61.310;2023-07-30T13:43:40;27.00;46.50
11454;DHT22;5783;55.174;61.310;2023-07-30T13:46:09;27.00;46.40
11454;DHT22;5783;55.174;61.310;2023-07-30T13:48:38;27.00;46.10
11454;DHT22;5783;55.174;61.310;2023-07-30T13:51:07;26.90;45.60
11454;DHT22;5783;55.174;61.310;2023-07-30T13:53:36;26.90;45.30
11454;DHT22;5783;55.174;61.310;2023-07-30T13:56:07;26.90;45.40
11454;DHT22;5783;55.174;61.310;2023-07-30T13:58:37;26.90;45.80
11454;DHT22;5783;55.174;61.310;2023-07-30T14:01:06;26.90;45.80
11454;DHT22;5783;55.174;61.310;2023-07-30T14:03:36;26.90;45.80
11454;DHT22;5783;55.174;61.310;2023-07-30T14:06:04;26.90;46.10
11454;DHT22;5783;55.174;61.310;2023-07-30T14:08:32;27.00;46.20
11454;DHT22;5783;55.174;61.310;2023-07-30T14:11:01;27.00;46.50
11454;DHT22;5783;55.174;61.310;2023-07-30T14:13:29;26.90;46.50
11454;DHT22;5783;55.174;61.310;2023-07-30T14:15:58;27.00;47.10
11454;DHT22;5783;55.174;61.310;2023-07-30T14:18:26;27.00;48.00
11454;DHT22;5783;55.174;61.310;2023-07-30T14:20:55;27.00;48.10
11454;DHT22;5783;55.174;61.310;2023-07-30T14:23:23;27.00;48.70
11454;DHT22;5783;55.174;61.310;2023-07-30T14:25:51;27.00;48.80
11454;DHT22;5783;55.174;61.310;2023-07-30T14:28:20;27.00;49.30
11454;DHT22;5783;55.174;61.310;2023-07-30T14:30:48;27.10;50.20
11454;DHT22;5783;55.174;61.310;2023-07-30T14:33:16;27.10;51.10
11454;DHT22;5783;55.174;61.310;2023-07-30T14:35:45;27.10;51.10
11454;DHT22;5783;55.174;61.310;2023-07-30T14:38:14;27.10;51.40
11454;DHT22;5783;55.174;61.310;2023-07-30T14:40:43;27.10;50.40
11454;DHT22;5783;55.174;61.310;2023-07-30T14:43:12;27.10;51.00
11454;DHT22;5783;55.174;61.310;2023-07-30T14:45:41;27.10;51.80
11454;DHT22;5783;55.174;61.310;2023-07-30T14:48:09;27.10;50.50
11454;DHT22;5783;55.174;61.310;2023-07-30T14:50:37;27.10;50.40
11454;DHT22;5783;55.174;61.310;2023-07-30T14:53:06;27.10;50.10
11454;DHT22;5783;55.174;61.310;2023-07-30T14:55:34;27.10;50.70
11454;DHT22;5783;55.174;61.310;2023-07-30T14:58:03;27.20;50.80
11454;DHT22;5783;55.174;61.310;2023-07-30T15:00:31;27.20;50.70
11454;DHT22;5783;55.174;61.310;2023-07-30T15:03:00;27.20;50.20
11454;DHT22;5783;55.174;61.310;2023-07-30T15:05:28;27.20;51.00
11454;DHT22;5783;55.174;61.310;2023-07-30T15:07:56;27.20;52.30
11454;DHT22;5783;55.174;61.310;2023-07-30T15:10:24;27.20;52.40
11454;DHT22;5783;55.174;61.310;2023-07-30T15:12:52;27.20;51.20
11454;DHT22;5783;55.174;61.310;2023-07-30T15:15:20;27.20;50.70
11454;DHT22;5783;55.174;61.310;2023-07-30T15:17:48;27.20;50.80
11454;DHT22;5783;55.174;61.310;2023-07-30T15:20:17;27.20;50.40
11454;DHT22;5783;55.174;61.310;2023-07-30T15:22:46;27.20;51.10
11454;DHT22;5783;55.174;61.310;2023-07-30T15:25:14;27.20;51.30
11454;DHT22;5783;55.174;61.310;2023-07-30T15:27:43;27.20;51.40
11454;DHT22;5783;55.174;61.310;2023-07-30T15:30:11;27.20;51.30
11454;DHT22;5783;55.174;61.310;2023-07-30T15:35:27;27.10;50.90
11454;DHT22;5783;55.174;61.310;2023-07-30T15:37:57;27.10;51.50
11454;DHT22;5783;55.174;61.310;2023-07-30T15:40:25;27.10;51.40
11454;DHT22;5783;55.174;61.310;2023-07-30T15:42:53;27.10;51.40
11454;DHT22;5783;55.174;61.310;2023-07-30T15:45:21;27.10;51.60
11454;DHT22;5783;55.174;61.310;2023-07-30T15:47:49;27.10;51.60
11454;DHT22;5783;55.174;61.310;2023-07-30T15:50:19;27.10;51.40
11454;DHT22;5783;55.174;61.310;2023-07-30T15:53:07;27.10;51.30
11454;DHT22;5783;55.174;61.310;2023-07-30T15:55:35;27.10;51.80
11454;DHT22;5783;55.174;61.310;2023-07-30T15:58:03;27.10;51.80
11454;DHT22;5783;55.174;61.310;2023-07-30T16:00:32;27.10;51.70
11454;DHT22;5783;55.174;61.310;2023-07-30T16:03:00;27.10;51.60
11454;DHT22;5783;55.174;61.310;2023-07-30T16:05:29;27.10;51.60
11454;DHT22;5783;55.174;61.310;2023-07-30T16:07:58;27.10;51.40
11454;DHT22;5783;55.174;61.310;2023-07-30T16:10:26;27.10;51.40
11454;DHT22;5783;55.174;61.310;2023-07-30T16:12:54;27.10;51.40
11454;DHT22;5783;55.174;61.310;2023-07-30T16:18:11;27.10;51.10
11454;DHT22;5783;55.174;61.310;2023-07-30T16:20:39;27.10;50.90
11454;DHT22;5783;55.174;61.310;2023-07-30T16:23:08;27.10;50.90
11454;DHT22;5783;55.174;61.310;2023-07-30T16:25:36;27.10;50.90
11454;DHT22;5783;55.174;61.310;2023-07-30T16:28:04;27.10;50.80